.
WxDataArchive / Data Records for 2014-12-04
2014-12-03 December 2014 2014-12-05

Data Records for Thursday, 04 December 2014

Time	Temp	Chill	HIndex	Humid	Dewpt	 Wind 	HiWind	WindDir	Rain 	Barom
-----	----	-----	------	-----	-----	------	------	-------	-----	-----
00:00	27.8	27.8	27.8	68	18.6	0	1	270	0.00	30.369 
00:05	27.8	27.8	27.8	69	19.0	0	1	270	0.00	30.369 
00:10	27.8	27.8	27.8	68	18.6	0	2	270	0.00	30.369 
00:15	27.9	27.9	27.9	68	18.7	0	1	270	0.00	30.366 
00:20	27.9	27.9	27.9	68	18.7	0	1	270	0.00	30.366 
00:25	27.8	27.8	27.8	68	18.6	0	0	---	0.00	30.366 
00:30	27.8	27.8	27.8	68	18.6	0	1	270	0.00	30.364 
00:35	27.8	27.8	27.8	68	18.6	0	1	270	0.00	30.364 
00:40	27.6	27.6	27.6	68	18.4	0	0	---	0.00	30.364 
00:45	27.5	27.5	27.5	68	18.3	0	1	270	0.00	30.360 
00:50	27.5	27.5	27.5	69	18.7	0	0	---	0.00	30.360 
00:55	27.3	27.3	27.3	69	18.5	0	0	---	0.00	30.360 
01:00	27.3	27.3	27.3	69	18.5	0	0	---	0.00	30.355 
01:05	27.2	27.2	27.2	69	18.4	0	1	270	0.00	30.355 
01:10	27.0	27.0	27.0	69	18.2	0	0	---	0.00	30.355 
01:15	26.9	26.9	26.9	69	18.1	0	0	---	0.00	30.351 
01:20	26.7	26.7	26.7	70	18.3	0	0	---	0.00	30.351 
01:25	26.6	26.6	26.6	70	18.2	0	0	---	0.00	30.351 
01:30	26.6	26.6	26.6	70	18.2	0	0	---	0.00	30.353 
01:35	26.4	26.4	26.4	71	18.3	0	0	---	0.00	30.353 
01:40	26.3	26.3	26.3	71	18.2	0	0	---	0.00	30.353 
01:45	26.0	26.0	26.0	71	17.9	0	0	---	0.00	30.351 
01:50	26.0	26.0	26.0	72	18.2	0	0	---	0.00	30.351 
01:55	25.8	25.8	25.8	72	18.0	0	0	---	0.00	30.351 
02:00	25.7	25.7	25.7	73	18.3	0	0	---	0.00	30.349 
02:05	25.7	25.7	25.7	73	18.3	0	0	---	0.00	30.349 
02:10	25.7	25.7	25.7	73	18.3	0	0	---	0.00	30.349 
02:15	25.6	25.6	25.6	73	18.2	0	0	---	0.00	30.351 
02:20	25.6	25.6	25.6	73	18.2	0	0	---	0.00	30.351 
02:25	25.6	25.6	25.6	74	18.5	0	0	---	0.00	30.351 
02:30	25.4	25.4	25.4	74	18.3	0	0	---	0.00	30.356 
02:35	25.4	25.4	25.4	74	18.3	0	0	---	0.00	30.356 
02:40	25.3	25.3	25.3	74	18.2	0	0	---	0.00	30.356 
02:45	25.1	25.1	25.1	74	18.0	0	0	---	0.00	30.356 
02:50	25.1	25.1	25.1	75	18.3	0	0	---	0.00	30.356 
02:55	25.0	25.0	25.0	75	18.2	0	0	---	0.00	30.356 
03:00	25.0	25.0	25.0	75	18.2	0	0	---	0.00	30.363 
03:05	25.0	25.0	25.0	75	18.2	0	0	---	0.00	30.363 
03:10	25.0	25.0	25.0	75	18.2	0	0	---	0.00	30.363 
03:15	24.8	24.8	24.8	75	18.0	0	0	---	0.00	30.372 
03:20	25.0	25.0	25.0	76	18.5	0	0	---	0.00	30.372 
03:25	25.0	25.0	25.0	76	18.5	0	0	---	0.00	30.372 
03:30	25.0	25.0	25.0	75	18.2	0	0	---	0.00	30.376 
03:35	24.8	24.8	24.8	76	18.3	0	0	---	0.00	30.376 
03:40	24.7	24.7	24.7	76	18.2	0	0	---	0.00	30.376 
03:45	24.5	24.5	24.5	76	18.0	0	0	---	0.00	30.360 
03:50	24.4	24.4	24.4	76	17.9	0	0	---	0.00	30.360 
03:55	24.2	24.2	24.2	77	18.1	0	0	---	0.00	30.360 
04:00	24.2	24.2	24.2	77	18.1	0	0	---	0.00	30.375 
04:05	24.1	24.1	24.1	77	18.0	0	0	---	0.00	30.375 
04:10	23.9	23.9	23.9	77	17.8	0	0	---	0.00	30.375 
04:15	23.8	23.8	23.8	77	17.7	0	0	---	0.00	30.375 
04:20	23.8	23.8	23.8	77	17.7	0	0	---	0.00	30.375 
04:25	23.6	23.6	23.6	78	17.8	0	0	---	0.00	30.375 
04:30	23.5	23.5	23.5	78	17.7	0	0	---	0.00	30.371 
04:35	23.3	23.3	23.3	79	17.8	0	0	---	0.00	30.371 
04:40	23.3	23.3	23.3	79	17.8	0	0	---	0.00	30.371 
04:45	23.2	23.2	23.2	79	17.7	0	0	---	0.00	30.372 
04:50	23.2	23.2	23.2	80	18.0	0	0	---	0.00	30.372 
04:55	23.2	23.2	23.2	80	18.0	0	0	---	0.00	30.372 
05:00	23.2	23.2	23.2	80	18.0	0	0	---	0.00	30.365 
05:05	23.2	23.2	23.2	80	18.0	0	0	---	0.00	30.365 
05:10	23.2	23.2	23.2	80	18.0	0	0	---	0.00	30.365 
05:15	23.2	23.2	23.2	80	18.0	0	0	---	0.00	30.376 
05:20	23.2	23.2	23.2	80	18.0	0	0	---	0.00	30.376 
05:25	23.2	23.2	23.2	81	18.3	0	0	---	0.00	30.376 
05:30	23.3	23.3	23.3	81	18.3	0	0	---	0.00	30.391 
05:35	23.3	23.3	23.3	81	18.3	0	0	---	0.00	30.391 
05:40	23.3	23.3	23.3	81	18.3	0	0	---	0.00	30.391 
05:45	23.3	23.3	23.3	81	18.3	0	0	---	0.00	30.399 
05:50	23.5	23.5	23.5	81	18.5	0	0	---	0.00	30.399 
05:55	23.5	23.5	23.5	81	18.5	0	0	---	0.00	30.399 
06:00	23.6	23.6	23.6	81	18.6	0	0	---	0.00	30.394 
06:05	23.6	23.6	23.6	82	18.9	0	0	---	0.00	30.394 
06:10	23.6	23.6	23.6	82	18.9	0	0	---	0.00	30.394 
06:15	23.8	23.8	23.8	82	19.1	0	0	---	0.00	30.393 
06:20	23.8	23.8	23.8	82	19.1	0	0	---	0.00	30.393 
06:25	23.9	23.9	23.9	82	19.2	0	0	---	0.00	30.393 
06:30	24.1	24.1	24.1	83	19.7	0	0	---	0.00	30.400 
06:35	24.1	24.1	24.1	82	19.4	0	0	---	0.00	30.400 
06:40	24.2	24.2	24.2	83	19.8	0	0	---	0.00	30.400 
06:45	24.2	24.2	24.2	83	19.8	0	0	---	0.00	30.405 
06:50	24.4	24.4	24.4	82	19.7	0	0	---	0.00	30.405 
06:55	24.4	24.4	24.4	82	19.7	0	0	---	0.00	30.405 
07:00	24.4	24.4	24.4	82	19.7	0	0	---	0.00	30.406 
07:05	24.5	24.5	24.5	82	19.8	0	0	---	0.00	30.406 
07:10	24.5	24.5	24.5	82	19.8	0	0	---	0.00	30.406 
07:15	24.5	24.5	24.5	82	19.8	0	0	---	0.00	30.403 
07:20	24.7	24.7	24.7	82	20.0	0	0	---	0.00	30.403 
07:25	24.7	24.7	24.7	82	20.0	0	0	---	0.00	30.403 
07:30	24.8	24.8	24.8	82	20.1	0	0	---	0.00	30.408 
07:35	24.8	24.8	24.8	82	20.1	0	0	---	0.00	30.408 
07:40	25.0	25.0	25.0	81	20.0	0	0	---	0.00	30.408 
07:45	25.0	25.0	25.0	81	20.0	0	0	---	0.00	30.415 
07:50	25.0	25.0	25.0	81	20.0	0	0	---	0.00	30.415 
07:55	25.0	25.0	25.0	81	20.0	0	0	---	0.00	30.415 
08:00	25.1	25.1	25.1	81	20.1	0	0	---	0.00	30.426 
08:05	25.1	25.1	25.1	81	20.1	0	0	---	0.00	30.426 
08:10	25.1	25.1	25.1	81	20.1	0	0	---	0.00	30.426 
08:15	25.1	25.1	25.1	81	20.1	0	0	---	0.00	30.427 
08:20	25.3	25.3	25.3	81	20.3	0	0	---	0.00	30.427 
08:25	25.3	25.3	25.3	81	20.3	0	0	---	0.00	30.427 
08:30	25.3	25.3	25.3	81	20.3	0	0	---	0.00	30.428 
08:35	25.4	25.4	25.4	81	20.4	0	0	---	0.00	30.428 
08:40	25.6	25.6	25.6	81	20.6	0	0	---	0.00	30.428 
08:45	25.6	25.6	25.6	81	20.6	0	0	---	0.00	30.426 
08:50	25.7	25.7	25.7	81	20.7	0	0	---	0.00	30.426 
08:55	25.8	25.8	25.8	81	20.8	0	0	---	0.00	30.426 
09:00	26.0	26.0	26.0	81	21.0	0	0	---	0.00	30.427 
09:05	26.3	26.3	26.3	81	21.3	0	0	---	0.00	30.427 
09:10	26.4	26.4	26.4	80	21.1	0	0	---	0.00	30.427 
09:15	26.7	26.7	26.7	80	21.4	0	0	---	0.00	30.443 
09:20	26.9	26.9	26.9	79	21.3	0	0	---	0.00	30.443 
09:25	27.0	27.0	27.0	78	21.1	0	1	270	0.00	30.443 
09:30	27.3	27.3	27.3	78	21.4	0	0	---	0.00	30.442 
09:35	27.5	27.5	27.5	78	21.6	0	2	270	0.00	30.442 
09:40	27.6	27.6	27.6	77	21.4	0	2	270	0.00	30.442 
09:45	27.6	27.6	27.6	77	21.4	0	2	270	0.00	30.436 
09:50	27.8	27.8	27.8	77	21.5	1	3	270	0.00	30.436 
09:55	27.8	27.8	27.8	77	21.5	0	3	270	0.00	30.436 
10:00	27.8	27.8	27.8	76	21.2	1	3	270	0.00	30.442 
10:05	27.8	27.8	27.8	76	21.2	1	2	270	0.00	30.442 
10:10	27.9	27.9	27.9	76	21.3	1	5	270	0.00	30.442 
10:15	27.9	27.9	27.9	76	21.3	1	5	112	0.00	30.442 
10:20	28.1	28.1	28.1	76	21.5	2	4	112	0.00	30.442 
10:25	28.1	28.1	28.1	75	21.2	2	4	112	0.00	30.442 
10:30	28.1	28.1	28.1	75	21.2	2	7	90	0.00	30.430 
10:35	28.1	28.1	28.1	75	21.2	2	4	90	0.00	30.430 
10:40	28.1	28.1	28.1	75	21.2	1	4	90	0.00	30.430 
10:45	28.2	28.2	28.2	76	21.6	2	4	90	0.00	30.437 
10:50	28.2	28.2	28.2	76	21.6	2	4	90	0.00	30.437 
10:55	28.4	28.4	28.4	76	21.8	1	4	90	0.00	30.437 
11:00	28.5	28.5	28.5	76	21.9	0	4	90	0.00	30.434 
11:05	28.5	28.5	28.5	76	21.9	1	3	90	0.00	30.434 
11:10	28.7	28.7	28.7	76	22.1	1	3	90	0.00	30.434 
11:15	28.8	28.8	28.8	76	22.2	1	3	90	0.00	30.435 
11:20	29.0	29.0	29.0	76	22.4	1	4	90	0.00	30.435 
11:25	29.0	29.0	29.0	75	22.1	1	4	90	0.00	30.435 
11:30	29.0	29.0	29.0	75	22.1	2	6	90	0.00	30.430 
11:35	29.0	29.0	29.0	75	22.1	2	4	90	0.00	30.430 
11:40	29.0	29.0	29.0	75	22.1	1	2	90	0.00	30.430 
11:45	29.3	29.3	29.3	75	22.4	0	2	90	0.00	30.432 
11:50	29.4	29.4	29.4	75	22.5	1	2	90	0.00	30.432 
11:55	29.4	29.4	29.4	75	22.5	1	3	90	0.00	30.432 
12:00	29.4	29.4	29.4	75	22.5	2	5	90	0.00	30.427 
12:05	29.5	29.5	29.5	74	22.3	2	6	90	0.00	30.427 
12:10	29.7	29.7	29.7	74	22.4	2	5	90	0.00	30.427 
12:15	30.1	30.1	30.1	75	23.2	2	5	90	0.00	30.423 
12:20	30.4	30.4	30.4	74	23.1	2	6	90	0.00	30.423 
12:25	30.3	30.3	30.3	73	22.7	2	5	112	0.00	30.423 
12:30	30.3	30.3	30.3	74	23.0	1	5	112	0.00	30.420 
12:35	30.3	30.3	30.3	73	22.7	2	5	90	0.00	30.420 
12:40	30.3	30.3	30.3	73	22.7	2	5	90	0.00	30.420 
12:45	30.4	30.4	30.4	74	23.1	1	3	90	0.00	30.409 
12:50	30.6	30.6	30.6	73	23.0	2	4	90	0.00	30.409 
12:55	30.6	30.6	30.6	73	23.0	1	5	90	0.00	30.409 
13:00	30.6	30.6	30.6	73	23.0	2	5	90	0.00	30.399 
13:05	30.6	30.6	30.6	74	23.3	1	4	90	0.00	30.399 
13:10	30.7	30.7	30.7	74	23.4	1	4	90	0.00	30.399 
13:15	30.9	30.9	30.9	73	23.3	2	5	90	0.00	30.405 
13:20	30.9	30.9	30.9	73	23.3	2	5	90	0.00	30.405 
13:25	30.9	30.9	30.9	73	23.3	1	3	90	0.00	30.405 
13:30	31.2	31.2	31.2	73	23.6	1	3	90	0.00	30.409 
13:35	31.3	31.3	31.3	72	23.3	1	5	90	0.00	30.409 
13:40	31.6	31.6	31.6	71	23.3	2	4	90	0.00	30.409 
13:45	31.6	31.6	31.6	71	23.3	1	4	90	0.00	30.399 
13:50	31.8	31.8	31.8	71	23.5	2	5	90	0.00	30.399 
13:55	31.8	31.8	31.8	70	23.2	2	5	90	0.00	30.399 
14:00	31.6	31.6	31.6	71	23.3	2	6	90	0.00	30.393 
14:05	31.6	31.6	31.6	70	23.0	2	6	90	0.00	30.393 
14:10	31.6	31.6	31.6	70	23.0	1	5	90	0.00	30.393 
14:15	31.6	31.6	31.6	70	23.0	2	5	90	0.00	30.388 
14:20	31.6	31.6	31.6	69	22.6	2	5	90	0.00	30.388 
14:25	31.5	31.5	31.5	69	22.5	2	5	90	0.00	30.388 
14:30	31.6	31.6	31.6	69	22.6	2	4	22	0.00	30.378 
14:35	31.6	31.6	31.6	69	22.6	2	5	112	0.00	30.378 
14:40	31.6	31.6	31.6	69	22.6	1	4	112	0.00	30.378 
14:45	31.8	31.8	31.8	69	22.8	2	7	112	0.00	30.378 
14:50	31.6	31.6	31.6	69	22.6	1	4	90	0.00	30.378 
14:55	31.6	31.6	31.6	69	22.6	1	5	90	0.00	30.378 
15:00	31.6	31.6	31.6	69	22.6	1	5	90	0.00	30.378 
15:05	31.6	31.6	31.6	69	22.6	2	5	90	0.00	30.378 
15:10	31.6	31.6	31.6	69	22.6	2	6	90	0.00	30.378 
15:15	31.6	31.6	31.6	69	22.6	2	5	90	0.00	30.380 
15:20	31.8	31.8	31.8	70	23.2	1	5	90	0.00	30.380 
15:25	31.8	31.8	31.8	69	22.8	1	5	90	0.00	30.380 
15:30	31.8	31.8	31.8	69	22.8	2	6	90	0.00	30.378 
15:35	31.8	31.8	31.8	69	22.8	1	6	90	0.00	30.378 
15:40	31.8	31.8	31.8	69	22.8	1	5	90	0.00	30.378 
15:45	31.6	31.6	31.6	69	22.6	2	6	90	0.00	30.376 
15:50	31.6	31.6	31.6	69	22.6	2	7	90	0.00	30.376 
15:55	31.6	31.6	31.6	69	22.6	1	4	68	0.00	30.376 
16:00	31.6	31.6	31.6	69	22.6	2	6	90	0.00	30.377 
16:05	31.5	31.5	31.5	69	22.5	2	4	90	0.00	30.377 
16:10	31.5	31.5	31.5	69	22.5	1	4	90	0.00	30.377 
16:15	31.5	31.5	31.5	69	22.5	1	4	90	0.00	30.377 
16:20	31.5	31.5	31.5	70	22.9	1	4	90	0.00	30.377 
16:25	31.5	31.5	31.5	70	22.9	1	3	90	0.00	30.377 
16:30	31.5	31.5	31.5	70	22.9	2	5	90	0.00	30.375 
16:35	31.5	31.5	31.5	70	22.9	1	3	90	0.00	30.375 
16:40	31.5	31.5	31.5	71	23.2	1	4	90	0.00	30.375 
16:45	31.5	31.5	31.5	71	23.2	1	5	90	0.00	30.370 
16:50	31.3	31.3	31.3	71	23.0	2	6	90	0.00	30.370 
16:55	31.3	31.3	31.3	71	23.0	2	5	90	0.00	30.370 
17:00	31.2	31.2	31.2	72	23.2	2	7	112	0.00	30.375 
17:05	31.2	31.2	31.2	72	23.2	2	5	90	0.00	30.375 
17:10	31.2	31.2	31.2	72	23.2	1	5	90	0.00	30.375 
17:15	31.2	31.2	31.2	72	23.2	2	5	90	0.00	30.378 
17:20	31.2	31.2	31.2	72	23.2	2	5	90	0.00	30.378 
17:25	31.2	31.2	31.2	72	23.2	3	7	90	0.00	30.378 
17:30	31.2	31.2	31.2	72	23.2	2	5	68	0.00	30.375 
17:35	31.2	31.2	31.2	73	23.6	2	5	112	0.00	30.375 
17:40	31.2	31.2	31.2	72	23.2	2	6	90	0.00	30.375 
17:45	31.2	31.2	31.2	73	23.6	2	6	90	0.00	30.371 
17:50	31.2	31.2	31.2	73	23.6	2	6	90	0.00	30.371 
17:55	31.2	31.2	31.2	73	23.6	3	6	90	0.00	30.371 
18:00	31.2	31.2	31.2	73	23.6	2	6	90	0.00	30.369 
18:05	31.2	31.2	31.2	73	23.6	2	7	112	0.00	30.369 
18:10	31.2	31.2	31.2	73	23.6	2	6	112	0.00	30.369 
18:15	31.3	31.3	31.3	73	23.7	2	7	112	0.00	30.374 
18:20	31.3	31.3	31.3	73	23.7	1	5	90	0.00	30.374 
18:25	31.3	31.3	31.3	73	23.7	2	5	90	0.00	30.374 
18:30	31.3	31.3	31.3	73	23.7	2	5	90	0.00	30.377 
18:35	31.3	31.3	31.3	73	23.7	2	5	68	0.00	30.377 
18:40	31.3	31.3	31.3	73	23.7	2	5	90	0.00	30.377 
18:45	31.3	31.3	31.3	73	23.7	2	5	90	0.00	30.377 
18:50	31.3	31.3	31.3	73	23.7	2	6	90	0.00	30.377 
18:55	31.3	31.3	31.3	73	23.7	2	5	90	0.00	30.377 
19:00	31.3	31.3	31.3	73	23.7	1	6	112	0.00	30.371 
19:05	31.3	31.3	31.3	73	23.7	2	6	90	0.00	30.371 
19:10	31.3	31.3	31.3	74	24.0	1	5	90	0.00	30.371 
19:15	31.3	31.3	31.3	74	24.0	1	3	90	0.00	30.375 
19:20	31.3	31.3	31.3	74	24.0	1	5	90	0.00	30.375 
19:25	31.5	31.5	31.5	74	24.2	1	4	90	0.00	30.375 
19:30	31.5	31.5	31.5	74	24.2	1	3	90	0.00	30.376 
19:35	31.5	31.5	31.5	74	24.2	2	5	90	0.00	30.376 
19:40	31.5	31.5	31.5	74	24.2	2	5	90	0.00	30.376 
19:45	31.5	31.5	31.5	74	24.2	2	4	90	0.00	30.367 
19:50	31.5	31.5	31.5	74	24.2	1	4	90	0.00	30.367 
19:55	31.5	31.5	31.5	74	24.2	2	6	90	0.00	30.367 
20:00	31.5	31.5	31.5	74	24.2	2	6	90	0.00	30.360 
20:05	31.5	31.5	31.5	74	24.2	1	3	90	0.00	30.360 
20:10	31.5	31.5	31.5	74	24.2	1	5	90	0.00	30.360 
20:15	31.5	31.5	31.5	74	24.2	2	4	90	0.00	30.352 
20:20	31.5	31.5	31.5	74	24.2	2	4	90	0.00	30.352 
20:25	31.5	31.5	31.5	74	24.2	2	5	112	0.00	30.352 
20:30	31.6	31.6	31.6	74	24.3	2	4	68	0.00	30.347 
20:35	31.6	31.6	31.6	74	24.3	2	9	90	0.00	30.347 
20:40	31.6	31.6	31.6	74	24.3	2	4	90	0.00	30.347 
20:45	31.6	31.6	31.6	74	24.3	2	5	68	0.00	30.352 
20:50	31.8	31.8	31.8	74	24.5	1	3	68	0.00	30.352 
20:55	31.8	31.8	31.8	74	24.5	1	4	68	0.00	30.352 
21:00	31.8	31.8	31.8	74	24.5	1	4	68	0.00	30.349 
21:05	31.8	31.8	31.8	75	24.8	1	3	68	0.00	30.349 
21:10	31.8	31.8	31.8	75	24.8	1	3	68	0.00	30.349 
21:15	31.8	31.8	31.8	75	24.8	2	4	68	0.00	30.345 
21:20	31.8	31.8	31.8	75	24.8	1	4	68	0.00	30.345 
21:25	31.8	31.8	31.8	75	24.8	2	4	90	0.00	30.345 
21:30	31.8	31.8	31.8	75	24.8	1	4	90	0.00	30.342 
21:35	31.8	31.8	31.8	75	24.8	1	5	90	0.00	30.342 
21:40	31.8	31.8	31.8	75	24.8	2	4	90	0.00	30.342 
21:45	31.8	31.8	31.8	75	24.8	2	5	90	0.00	30.343 
21:50	31.9	31.9	31.9	75	24.9	1	4	90	0.00	30.343 
21:55	31.9	31.9	31.9	75	24.9	2	4	90	0.00	30.343 
22:00	31.9	31.9	31.9	75	24.9	2	5	90	0.00	30.339 
22:05	31.9	31.9	31.9	75	24.9	2	6	90	0.00	30.339 
22:10	31.9	31.9	31.9	75	24.9	2	5	68	0.00	30.339 
22:15	31.9	31.9	31.9	75	24.9	1	4	90	0.00	30.340 
22:20	31.9	31.9	31.9	75	24.9	2	5	90	0.00	30.340 
22:25	31.9	31.9	31.9	75	24.9	2	6	90	0.00	30.340 
22:30	31.9	31.9	31.9	75	24.9	2	6	90	0.00	30.335 
22:35	31.9	31.9	31.9	75	24.9	2	5	90	0.00	30.335 
22:40	31.9	31.9	31.9	75	24.9	1	5	90	0.00	30.335 
22:45	31.9	31.9	31.9	76	25.2	1	4	90	0.00	30.327 
22:50	31.9	31.9	31.9	76	25.2	1	5	90	0.00	30.327 
22:55	31.9	31.9	31.9	77	25.5	1	4	90	0.00	30.327 
23:00	31.9	31.9	31.9	77	25.5	1	4	90	0.00	30.328 
23:05	31.8	31.8	31.8	77	25.4	2	5	90	0.00	30.328 
23:10	31.8	31.8	31.8	77	25.4	2	5	90	0.00	30.328 
23:15	31.8	31.8	31.8	77	25.4	1	5	90	0.00	30.327 
23:20	31.8	31.8	31.8	77	25.4	1	5	90	0.00	30.327 
23:25	31.8	31.8	31.8	77	25.4	1	5	68	0.00	30.327 
23:30	31.6	31.6	31.6	77	25.2	2	6	90	0.00	30.327 
23:35	31.6	31.6	31.6	77	25.2	2	5	90	0.00	30.327 
23:40	31.6	31.6	31.6	77	25.2	2	5	90	0.00	30.327 
23:45	31.6	31.6	31.6	78	25.5	2	5	90	0.00	30.323 
23:50	31.6	31.6	31.6	78	25.5	2	5	90	0.00	30.323 
23:55	31.6	31.6	31.6	78	25.5	2	5	90	0.00	30.323 

CoCoRaHS
IN-AL-39
A2 Web Hosting
Creative Commons License
GoDaddy
search engine by freefind advanced

loaded 2018-11-13 02:09:38 • last modified 2010-11-18 10:43:29
Privacy PolicyDisclaimer
• wx.awcolley.com is powered by PmWiki v.2002016 •
• all content (unless otherwise noted) © 2018 A W Colley